Time;durP1;ratioP1;P1;durP2;ratioP2;P2;SDS_P1;SDS_P2;PMS_P1;PMS_P2;Temp;Humidity;BMP_temperature;BMP_pressure;BME280_temperature;BME280_humidity;BME280_pressure;Samples;Min_cycle;Max_cycle;Signal;HPM_P1;HPM_P2
2022/08/09 00:10:36;;;;;;;3.90;2.05;;;;;;;;;;4833576;29;20065;-86
2022/08/09 00:13:02;;;;;;;4.20;2.30;;;;;;;;;;4820932;29;20051;-85
2022/08/09 00:19:08;;;;;;;6.32;2.67;;;;;;;;;;4813556;23;20063;-86
2022/08/09 00:21:43;;;;;;;6.07;2.40;;;;;;;;;;4824604;29;20066;-84
2022/08/09 00:24:34;;;;;;;5.63;2.40;;;;;;;;;;4923662;23;20062;-85
2022/08/09 00:30:16;;;;;;;3.35;2.10;;;;;;;;;;4842206;29;20050;-85
2022/08/09 00:33:07;;;;;;;2.90;2.00;;;;;;;;;;4839140;23;20045;-85
2022/08/09 00:35:42;;;;;;;2.42;2.00;;;;;;;;;;4840419;29;20058;-86
2022/08/09 00:38:11;;;;;;;5.47;2.60;;;;;;;;;;4820800;29;20074;-84
2022/08/09 00:40:37;;;;;;;7.13;1.90;;;;;;;;;;4826789;29;20376;-84
2022/08/09 00:43:03;;;;;;;5.63;2.10;;;;;;;;;;4839141;29;20125;-84
2022/08/09 00:45:29;;;;;;;9.55;2.58;;;;;;;;;;4837880;29;20046;-85
2022/08/09 00:48:14;;;;;;;4.65;2.42;;;;;;;;;;4826715;29;20050;-86
2022/08/09 00:50:58;;;;;;;4.18;2.25;;;;;;;;;;4828016;29;20128;-86
2022/08/09 00:53:30;;;;;;;8.07;2.50;;;;;;;;;;4830131;29;20056;-83
2022/08/09 00:56:07;;;;;;;4.80;2.35;;;;;;;;;;4849481;29;20061;-85
2022/08/09 00:58:34;;;;;;;5.13;2.50;;;;;;;;;;4834642;29;20038;-84
2022/08/09 01:01:01;;;;;;;7.82;2.35;;;;;;;;;;4848793;29;20061;-84
2022/08/09 01:03:59;;;;;;;6.55;2.70;;;;;;;;;;4832266;29;20406;-84
2022/08/09 01:06:51;;;;;;;7.07;2.50;;;;;;;;;;4846591;29;20060;-86
2022/08/09 01:09:32;;;;;;;4.97;2.10;;;;;;;;;;4830985;29;20069;-85
2022/08/09 01:12:17;;;;;;;8.23;2.95;;;;;;;;;;4816566;29;20110;-84
2022/08/09 01:15:00;;;;;;;6.78;2.60;;;;;;;;;;4843365;29;20057;-83
2022/08/09 01:17:39;;;;;;;4.15;2.42;;;;;;;;;;4830896;29;20053;-84
2022/08/09 01:20:10;;;;;;;4.10;2.42;;;;;;;;;;4852702;29;20604;-84
2022/08/09 01:23:00;;;;;;;4.28;2.50;;;;;;;;;;4830080;29;20140;-84
2022/08/09 01:25:45;;;;;;;4.55;2.25;;;;;;;;;;4849406;29;20049;-85
2022/08/09 01:28:14;;;;;;;4.03;2.60;;;;;;;;;;4858499;29;20057;-83
2022/08/09 01:30:41;;;;;;;4.00;2.35;;;;;;;;;;4854579;29;20533;-83
2022/08/09 01:33:08;;;;;;;9.32;2.60;;;;;;;;;;4827330;29;20058;-85
2022/08/09 01:39:20;;;;;;;5.20;2.83;;;;;;;;;;4817019;29;20045;-84
2022/08/09 01:41:48;;;;;;;3.78;2.20;;;;;;;;;;4846094;24;20066;-83
2022/08/09 01:44:23;;;;;;;7.35;3.20;;;;;;;;;;4831055;29;20905;-85
2022/08/09 01:46:49;;;;;;;7.28;3.13;;;;;;;;;;4831572;29;20046;-85
2022/08/09 01:49:16;;;;;;;5.70;3.13;;;;;;;;;;4848948;29;20083;-84
2022/08/09 01:51:56;;;;;;;5.75;2.60;;;;;;;;;;4834160;29;20057;-84
2022/08/09 01:54:39;;;;;;;4.72;2.45;;;;;;;;;;4817480;29;20042;-85
2022/08/09 02:00:49;;;;;;;4.40;2.20;;;;;;;;;;4871961;23;20667;-86
2022/08/09 02:03:41;;;;;;;5.43;2.33;;;15.40;99.90;;;;;;4806802;29;20058;-85
2022/08/09 02:09:22;;;;;;;4.05;2.30;;;;;;;;;;4830989;24;20046;-86
2022/08/09 02:12:14;;;;;;;3.25;2.28;;;;;;;;;;4844519;29;20062;-85
2022/08/09 02:14:41;;;;;;;4.32;2.33;;;;;;;;;;4842569;29;20113;-84
2022/08/09 02:17:09;;;;;;;4.90;2.72;;;;;;;;;;4844693;29;20052;-83
2022/08/09 02:22:36;;;;;;;4.00;2.35;;;;;;;;;;4837255;23;20051;-84
2022/08/09 02:28:33;;;;;;;6.53;3.17;;;;;;;;;;4833142;24;20154;-86
2022/08/09 02:31:18;;;;;;;8.25;3.03;;;;;;;;;;4827862;29;20162;-84
2022/08/09 02:33:45;;;;;;;6.28;2.78;;;;;;;;;;4816153;29;20050;-86
2022/08/09 02:36:14;;;;;;;4.78;2.45;;;;;;;;;;4811531;29;20057;-83
2022/08/09 02:38:50;;;;;;;4.45;2.85;;;;;;;;;;4803952;29;20061;-84
2022/08/09 02:41:41;;;;;;;3.38;2.55;;;;;;;;;;4814244;23;20114;-83
2022/08/09 02:44:42;;;;;;;5.40;2.55;;;;;;;;;;4803299;29;20257;-83
2022/08/09 02:50:52;;;;;;;7.30;3.50;;;;;;;;;;4774595;29;20053;-85
2022/08/09 02:53:36;;;;;;;4.72;2.42;;;;;;;;;;4796214;29;20043;-84
2022/08/09 02:56:26;;;;;;;7.75;2.45;;;;;;;;;;4775926;30;20067;-84
2022/08/09 02:58:52;;;;;;;5.28;2.92;;;;;;;;;;4762735;30;20066;-84
2022/08/09 03:01:27;;;;;;;6.43;2.60;;;;;;;;;;4761475;29;20775;-83
2022/08/09 03:06:46;;;;;;;4.38;3.17;;;;;;;;;;4859173;24;20050;-83
2022/08/09 03:09:31;;;;;;;5.57;2.75;;;;;;;;;;4846313;29;20114;-86
2022/08/09 03:12:06;;;;;;;3.22;2.53;;;;;;;;;;4816223;29;20054;-85
2022/08/09 03:14:33;;;;;;;8.23;3.65;;;;;;;;;;4824517;29;20050;-85
2022/08/09 03:17:02;;;;;;;9.43;4.10;;;;;;;;;;4823813;29;20046;-83
2022/08/09 03:19:30;;;;;;;5.03;3.10;;;;;;;;;;4796347;29;20054;-86
2022/08/09 03:21:57;;;;;;;5.72;2.90;;;;;;;;;;4810177;29;20053;-85
2022/08/09 03:24:42;;;;;;;5.15;3.08;;;;;;;;;;4826704;29;20077;-85
2022/08/09 03:27:09;;;;;;;4.88;2.97;;;;;;;;;;4846416;29;20449;-85
2022/08/09 03:29:36;;;;;;;4.72;3.00;;;;;;;;;;4831893;29;20062;-85
2022/08/09 03:32:08;;;;;;;5.03;3.08;;;;;;;;;;4824414;29;20137;-86
2022/08/09 03:34:38;;;;;;;3.83;3.17;;;;;;;;;;4821672;29;20423;-86
2022/08/09 03:37:38;;;;;;;6.13;3.25;;;;;;;;;;4802112;29;20137;-84
2022/08/09 03:40:04;;;;;;;7.55;3.90;;;;;;;;;;4826933;29;20099;-85
2022/08/09 03:42:30;;;;;;;8.57;3.55;;;;;;;;;;4792371;29;20056;-84
2022/08/09 03:45:11;;;;;;;6.60;3.17;;;;;;;;;;4795856;29;20047;-85
2022/08/09 03:47:38;;;;;;;5.53;3.50;;;;;;;;;;4796462;29;20053;-85
2022/08/09 03:50:06;;;;;;;4.15;3.17;;;;;;;;;;4787506;29;20055;-87
2022/08/09 03:52:41;;;;;;;5.35;3.30;;;;;;;;;;4825934;29;20047;-85
2022/08/09 03:55:22;;;;;;;5.57;3.22;;;;;;;;;;4818599;29;20046;-84
2022/08/09 03:57:49;;;;;;;3.72;3.20;;;;;;;;;;4817407;29;20093;-85
2022/08/09 04:00:35;;;;;;;5.22;3.80;;;14.60;99.90;;;;;;4809360;29;20050;-84
2022/08/09 04:11:17;;;;;;;4.70;3.45;;;;;;;;;;4955781;24;20068;-87
2022/08/09 04:17:22;;;;;;;3.88;3.20;;;;;;;;;;4786069;30;20062;-85
2022/08/09 04:49:56;;;;;;;5.20;4.15;;;;;;;;;;4834206;29;20431;-86
2022/08/09 05:00:09;;;;;;;4.85;4.28;;;;;;;;;;4843780;29;20074;-87
2022/08/09 05:09:08;;;;;;;6.82;4.53;;;;;;;;;;4843618;29;20094;-88
2022/08/09 05:11:46;;;;;;;6.00;4.63;;;;;;;;;;4836336;29;20065;-85
2022/08/09 05:17:13;;;;;;;10.30;6.50;;;;;;;;;;4816035;23;20070;-84
2022/08/09 05:19:54;;;;;;;;;;;;;;;;;;4794713;29;20061;-85
2022/08/09 05:50:33;;;;;;;6.47;2.80;;;;;;;;;;4820330;29;20058;-85
2022/08/09 05:52:59;;;;;;;4.15;2.42;;;;;;;;;;4808256;29;20038;-86
2022/08/09 05:55:41;;;;;;;5.38;2.20;;;;;;;;;;4807321;29;20062;-87
2022/08/09 05:58:32;;;;;;;5.50;2.17;;;;;;;;;;4827158;29;20046;-86
2022/08/09 06:10:55;;;;;;;5.53;2.10;;;;;;;;;;4816835;29;20066;-85
2022/08/09 06:17:34;;;;;;;4.55;1.88;;;;;;;;;;4821222;29;20091;-86
2022/08/09 06:35:17;;;;;;;2.85;1.50;;;;;;;;;;4902182;24;20066;-86
2022/08/09 06:37:43;;;;;;;4.68;1.77;;;;;;;;;;4792564;29;20640;-84
2022/08/09 06:53:35;;;;;;;1.70;0.98;;;;;;;;;;4956141;24;20121;-87
2022/08/09 06:58:55;;;;;;;2.90;1.20;;;;;;;;;;4839214;29;20523;-85
2022/08/09 07:01:21;;;;;;;2.90;1.10;;;;;;;;;;4829970;29;20085;-85
2022/08/09 07:07:16;;;;;;;2.97;1.10;;;;;;;;;;4841975;29;20118;-87
2022/08/09 07:09:43;;;;;;;2.80;1.00;;;;;;;;;;4827054;29;20538;-87
2022/08/09 07:12:16;;;;;;;1.60;0.90;;;;;;;;;;4840357;29;20384;-86
2022/08/09 07:17:37;;;;;;;2.70;1.17;;;;;;;;;;4864032;23;20554;-87
2022/08/09 07:20:05;;;;;;;1.45;1.10;;;;;;;;;;4807572;23;20043;-86
2022/08/09 07:22:33;;;;;;;1.80;1.00;;;;;;;;;;4814243;29;20058;-86
2022/08/09 07:28:14;;;;;;;3.08;1.00;;;;;;;;;;4829800;29;20049;-86
2022/08/09 07:30:40;;;;;;;2.10;1.10;;;;;;;;;;4814660;29;20049;-86
2022/08/09 07:33:14;;;;;;;1.25;0.80;;;;;;;;;;5003377;24;20130;-86
2022/08/09 07:38:40;;;;;;;3.28;1.10;;;;;;;;;;4845459;24;20151;-85
2022/08/09 07:41:06;;;;;;;1.92;0.98;;;;;;;;;;4823537;29;20046;-85
2022/08/09 07:43:33;;;;;;;2.33;1.15;;;;;;;;;;4822493;29;20137;-86
2022/08/09 07:45:59;;;;;;;2.70;1.00;;;;;;;;;;4824140;29;20141;-86
2022/08/09 07:48:25;;;;;;;2.38;0.90;;;;;;;;;;4821944;29;20049;-86
2022/08/09 07:50:51;;;;;;;1.38;0.95;;;;;;;;;;4826611;29;20116;-86
2022/08/09 07:53:17;;;;;;;2.50;0.90;;;;;;;;;;4851172;29;20052;-87
2022/08/09 07:56:11;;;;;;;5.63;1.05;;;;;;;;;;4835755;29;20428;-87
2022/08/09 07:58:37;;;;;;;2.53;0.77;;;;;;;;;;4840966;29;20420;-85
2022/08/09 08:01:03;;;;;;;3.47;0.90;;;;;;;;;;4819643;29;20042;-86
2022/08/09 08:03:33;;;;;;;1.55;0.80;;;;;;;;;;4800599;29;20204;-87
2022/08/09 08:05:59;;;;;;;4.57;2.95;;;;;;;;;;4816937;29;20077;-87
2022/08/09 08:08:44;;;;;;;2.03;0.80;;;;;;;;;;4821453;29;20060;-86
2022/08/09 08:11:10;;;;;;;4.70;1.05;;;;;;;;;;4809788;29;20052;-86
2022/08/09 08:13:36;;;;;;;3.80;0.90;;;;;;;;;;4830976;29;20053;-86
2022/08/09 08:16:02;;;;;;;1.90;0.73;;;;;;;;;;4860789;29;20124;-86
2022/08/09 08:18:28;;;;;;;3.53;0.77;;;;;;;;;;4830269;29;20050;-87
2022/08/09 08:20:54;;;;;;;3.08;0.80;;;;;;;;;;4836389;29;20038;-87
2022/08/09 08:23:33;;;;;;;1.92;0.70;;;;;;;;;;4830848;29;20074;-88
2022/08/09 08:29:45;;;;;;;1.92;0.73;;;;;;;;;;4845021;23;20058;-87
2022/08/09 08:32:12;;;;;;;1.15;0.85;;;;;;;;;;4826962;29;20130;-88
2022/08/09 08:35:16;;;;;;;3.10;0.77;;;;;;;;;;4816620;29;20058;-86
2022/08/09 08:37:42;;;;;;;1.38;0.60;;;;;;;;;;4828743;24;20042;-87
2022/08/09 08:40:33;;;;;;;1.70;0.70;;;20.20;99.90;;;;;;4847561;29;20054;-87
2022/08/09 08:50:05;;;;;;;1.10;0.60;;;;;;;;;;4847592;29;20053;-88
2022/08/09 08:52:48;;;;;;;2.13;1.10;;;;;;;;;;4834525;29;20049;-86
2022/08/09 08:55:23;;;;;;;0.77;0.65;;;;;;;;;;4846614;29;20211;-85
2022/08/09 08:57:49;;;;;;;2.05;1.15;;;;;;;;;;4850209;29;20054;-86
2022/08/09 09:00:22;;;;;;;2.38;0.80;;;;;;;;;;4835317;29;20392;-86
2022/08/09 09:02:58;;;;;;;3.92;1.00;;;;;;;;;;4836627;29;20144;-86
2022/08/09 09:05:31;;;;;;;2.15;0.70;;;;;;;;;;4827104;29;20058;-86
2022/08/09 09:18:34;;;;;;;1.15;0.55;;;;;;;;;;4795419;29;20132;-86
2022/08/09 09:21:15;;;;;;;2.60;0.70;;;;;;;;;;4792422;29;20055;-85
2022/08/09 09:23:45;;;;;;;1.95;0.60;;;;;;;;;;4800824;29;20058;-85
2022/08/09 09:26:12;;;;;;;1.60;0.88;;;;;;;;;;4805236;29;20543;-86
2022/08/09 09:28:56;;;;;;;6.25;0.57;;;;;;;;;;4765191;30;20085;-85
2022/08/09 09:31:26;;;;;;;1.92;0.60;;;;;;;;;;4770071;30;20051;-85
2022/08/09 09:37:46;;;;;;;2.35;0.80;;;;;;;;;;4775176;30;20083;-84
2022/08/09 09:42:56;;;;;;;2.28;0.65;;;;;;;;;;4825334;24;20062;-84
2022/08/09 09:48:14;;;;;;;0.93;0.55;;;;;;;;;;4847121;24;20066;-85
2022/08/09 09:50:40;;;;;;;3.17;0.75;;;;;;;;;;4809794;29;20046;-85
2022/08/09 09:53:13;;;;;;;2.50;0.60;;;;;;;;;;4829593;29;20038;-85
2022/08/09 09:58:59;;;;;;;0.88;0.55;;;;;;;;;;4852345;29;20064;-85
2022/08/09 10:04:17;;;;;;;1.60;0.55;;;;;;;;;;4813998;23;20089;-85
2022/08/09 10:06:45;;;;;;;0.77;0.60;;;;;;;;;;4754149;29;20076;-84
2022/08/09 10:09:23;;;;;;;1.40;0.50;;;;;;;;;;4824977;29;20043;-85
2022/08/09 10:11:56;;;;;;;5.38;0.70;;;;;;;;;;4788065;29;20062;-85
2022/08/09 10:14:49;;;;;;;0.85;0.70;;;;;;;;;;4782794;29;20051;-84
2022/08/09 10:17:31;;;;;;;0.52;0.50;;;;;;;;;;4774193;30;20051;-85
2022/08/09 10:20:16;;;;;;;3.80;0.60;;;;;;;;;;4804120;29;20042;-85
2022/08/09 10:22:42;;;;;;;1.25;0.50;;;;;;;;;;4803828;29;20051;-85
2022/08/09 10:25:08;;;;;;;1.20;0.93;;;;;;;;;;4794635;29;20392;-86
2022/08/09 10:27:50;;;;;;;0.95;0.70;;;;;;;;;;4809880;29;20091;-87
2022/08/09 10:30:17;;;;;;;1.25;0.70;;;;;;;;;;4803867;29;20069;-86
2022/08/09 10:32:44;;;;;;;1.40;0.70;;;;;;;;;;4794583;29;20143;-86
2022/08/09 10:35:10;;;;;;;1.23;0.52;;;;;;;;;;4807132;29;20066;-87
2022/08/09 10:37:37;;;;;;;1.55;0.85;;;;;;;;;;4792108;29;20058;-86
2022/08/09 10:40:05;;;;;;;1.27;0.47;;;;;;;;;;4781075;29;20389;-87
2022/08/09 10:42:31;;;;;;;1.25;0.60;;;;;;;;;;4792475;29;20046;-86
2022/08/09 10:45:19;;;;;;;1.05;0.50;;;;;;;;;;4797339;29;20665;-86
2022/08/09 10:48:06;;;;;;;0.82;0.47;;;;;;;;;;4794275;29;20698;-86
2022/08/09 10:53:32;;;;;;;0.90;0.45;;;;;;;;;;4787986;29;20058;-86
2022/08/09 10:56:17;;;;;;;0.70;0.70;;;;;;;;;;4793394;29;20081;-84
2022/08/09 10:58:43;;;;;;;0.63;0.55;;;;;;;;;;4799696;29;20492;-88
2022/08/09 11:01:28;;;;;;;2.92;0.60;;;;;;;;;;4780374;29;20050;-85
2022/08/09 11:04:13;;;;;;;1.48;0.50;;;;;;;;;;4799340;29;20088;-85
2022/08/09 11:06:43;;;;;;;0.68;0.45;;;;;;;;;;4807013;29;20055;-84
2022/08/09 11:09:10;;;;;;;0.85;0.60;;;;;;;;;;4814023;29;20043;-86
2022/08/09 11:11:58;;;;;;;3.05;0.60;;;;;;;;;;4806390;29;20057;-86
2022/08/09 11:14:33;;;;;;;2.60;0.82;;;;;;;;;;4797582;29;20058;-86
2022/08/09 11:16:59;;;;;;;1.00;0.50;;;;;;;;;;4799878;29;20095;-85
2022/08/09 11:19:48;;;;;;;0.85;0.40;;;;;;;;;;4789805;29;20048;-86
2022/08/09 11:22:19;;;;;;;2.08;0.50;;;;;;;;;;4821372;29;20046;-87
2022/08/09 11:24:57;;;;;;;0.40;0.40;;;;;;;;;;4796094;29;20047;-86
2022/08/09 11:37:51;;;;;;;;;;;;;;;;;;;;;
2022/08/09 11:40:37;;;;;;;0.90;0.43;;;;;;;;;;4758130;30;20101;-86
2022/08/09 11:53:56;;;;;;;2.08;0.50;;;;;;;;;;4819827;29;20076;-86
2022/08/09 12:06:29;;;;;;;1.33;0.40;;;;;;;;;;4822435;29;20114;-85
2022/08/09 12:09:08;;;;;;;0.60;0.40;;;;;;;;;;4830121;29;20054;-86
2022/08/09 12:12:08;;;;;;;0.88;0.40;;;;;;;;;;4811273;29;20074;-85
2022/08/09 12:14:40;;;;;;;1.38;0.40;;;;;;;;;;4752622;30;20079;-86
2022/08/09 12:17:30;;;;;;;2.25;0.50;;;;;;;;;;4802359;24;20067;-86
2022/08/09 12:23:23;;;;;;;3.17;0.68;;;;;;;;;;4800225;29;20087;-86
2022/08/09 12:25:57;;;;;;;1.02;0.40;;;;;;;;;;4798093;29;20519;-87
2022/08/09 12:28:40;;;;;;;;;;;;;;;;;;4815878;29;20089;-87
2022/08/09 12:32:15;;;;;;;1.73;0.60;;;;;;;;;;4818413;24;20081;-86
2022/08/09 12:35:14;;;;;;;0.60;0.55;;;;;;;;;;4796062;29;20050;-85
2022/08/09 12:41:34;;;;;;;4.38;0.90;;;;;;;;;;4834523;29;20130;-86
2022/08/09 12:44:00;;;;;;;1.55;0.70;;;;;;;;;;4793118;29;20046;-87
2022/08/09 12:52:54;;;;;;;1.15;0.50;;;;;;;;;;4931939;24;20088;-86
2022/08/09 12:55:24;;;;;;;0.73;0.40;;;;;;;;;;4802263;29;20064;-86
2022/08/09 12:57:50;;;;;;;0.60;0.35;;;;;;;;;;4819919;29;20064;-86
2022/08/09 13:00:24;;;;;;;0.65;0.38;;;;;;;;;;4796582;29;20236;-86
2022/08/09 13:03:13;;;;;;;1.27;0.50;;;;;;;;;;4795623;29;20074;-85
2022/08/09 13:06:33;;;;;;;0.40;0.38;;;24.40;99.90;;;;;;4806371;29;20120;-89
2022/08/09 13:09:01;;;;;;;0.75;0.52;;;;;;;;;;4759905;30;20111;-86
2022/08/09 13:11:28;;;;;;;1.48;0.40;;;;;;;;;;4769945;30;20086;-86
2022/08/09 13:20:32;;;;;;;0.43;0.40;;;;;;;;;;4759933;30;20108;-87
2022/08/09 13:22:59;;;;;;;0.68;0.50;;;;;;;;;;4761491;30;20064;-86
2022/08/09 13:25:48;;;;;;;2.38;0.68;;;;;;;;;;4776040;30;20063;-87
2022/08/09 13:28:16;;;;;;;0.60;0.40;;;;;;;;;;4737499;30;20679;-88
2022/08/09 13:30:42;;;;;;;3.40;0.43;;;;;;;;;;4767291;29;20058;-85
2022/08/09 13:38:38;;;;;;;1.58;0.30;;;;;;;;;;5037216;24;20117;-85
2022/08/09 13:41:39;;;;;;;1.15;0.40;;;;;;;;;;4830190;29;20888;-87
2022/08/09 13:46:54;;;;;;;1.05;0.40;;;;;;;;;;4958853;24;20054;-86
2022/08/09 13:49:50;;;;;;;1.10;0.30;;;;;;;;;;4839623;24;20068;-87
2022/08/09 13:52:41;;;;;;;2.47;0.50;;;;;;;;;;4818941;29;20154;-89
2022/08/09 13:55:33;;;;;;;1.63;0.50;;;;;;;;;;4838070;24;20065;-87
2022/08/09 14:26:20;;;;;;;0.30;0.30;;;;;;;;;;4846065;29;20058;-86
2022/08/09 14:28:46;;;;;;;0.45;0.32;;;;;;;;;;4818331;29;20054;-86
2022/08/09 14:38:07;;;;;;;1.10;0.50;;;;;;;;;;4856004;29;20052;-85
2022/08/09 14:40:58;;;;;;;0.98;0.50;;;;;;;;;;4815148;29;20082;-85
2022/08/09 14:43:50;;;;;;;0.90;0.40;;;;;;;;;;4826038;29;20047;-85
2022/08/09 14:49:30;;;;;;;0.52;0.30;;;;;;;;;;4827319;29;20046;-86
2022/08/09 14:51:56;;;;;;;0.80;0.40;;;;;;;;;;4835680;29;20057;-85
2022/08/09 14:54:31;;;;;;;0.45;0.40;;;;;;;;;;4833191;29;20468;-84
2022/08/09 15:00:06;;;;;;;0.98;0.70;;;;;;;;;;4808479;29;20043;-84
2022/08/09 15:02:32;;;;;;;0.45;0.45;;;;;;;;;;4811172;29;20062;-83
2022/08/09 15:05:05;;;;;;;1.55;0.77;;;;;;;;;;4825279;29;20079;-85
2022/08/09 15:07:50;;;;;;;;;;;;;;;;;;4827794;29;20673;-84
2022/08/09 15:10:32;;;;;;;;;;;;;;;;;;4824194;29;19931;-86
2022/08/09 15:15:48;;;;;;;1.55;0.43;;;;;;;;;;4993888;23;20073;-85
2022/08/09 15:18:14;;;;;;;2.40;0.60;;;;;;;;;;4837447;29;20084;-84
2022/08/09 15:20:41;;;;;;;1.10;0.40;;;;;;;;;;4844071;29;20057;-85
2022/08/09 15:23:16;;;;;;;1.77;0.50;;;;;;;;;;4828390;29;20077;-86
2022/08/09 15:25:42;;;;;;;0.75;0.38;;;;;;;;;;4829832;29;20074;-85
2022/08/09 15:28:08;;;;;;;0.65;0.40;;;;;;;;;;4816230;29;20057;-85
2022/08/09 15:30:34;;;;;;;0.43;0.30;;;;;;;;;;4857496;29;20046;-85
2022/08/09 15:33:12;;;;;;;1.10;0.40;;;;;;;;;;4812643;29;20058;-84
2022/08/09 15:35:45;;;;;;;2.15;0.30;;;;;;;;;;4849430;29;20050;-85
2022/08/09 15:38:20;;;;;;;2.67;0.55;;;;;;;;;;4849271;29;20049;-85
2022/08/09 15:41:05;;;;;;;4.57;0.60;;;;;;;;;;4859149;29;20034;-85
2022/08/09 15:43:33;;;;;;;0.85;0.30;;;;;;;;;;4850356;29;20084;-84
2022/08/09 15:46:24;;;;;;;0.40;0.30;;;25.90;99.90;;;;;;4860917;29;20084;-86
2022/08/09 15:49:24;;;;;;;0.47;0.40;;;;;;;;;;4844399;29;20054;-86
2022/08/09 15:51:56;;;;;;;1.27;0.40;;;;;;;;;;4821061;29;20094;-86
2022/08/09 15:54:22;;;;;;;1.60;0.65;;;;;;;;;;4817528;29;20053;-85
2022/08/09 15:56:48;;;;;;;3.50;0.50;;;;;;;;;;4837885;29;20070;-85
2022/08/09 15:59:14;;;;;;;2.13;0.70;;;;;;;;;;4826203;29;20078;-84
2022/08/09 16:01:50;;;;;;;3.22;0.63;;;;;;;;;;4822756;29;20030;-86
2022/08/09 16:04:35;;;;;;;1.00;0.43;;;;;;;;;;4855723;29;20054;-87
2022/08/09 16:07:02;;;;;;;6.53;1.38;;;;;;;;;;4823610;29;20052;-86
2022/08/09 16:09:47;;;;;;;1.48;0.50;;;;;;;;;;4850016;29;20042;-86
2022/08/09 16:12:13;;;;;;;0.45;0.45;;;;;;;;;;4836139;29;20156;-85
2022/08/09 16:14:39;;;;;;;3.20;0.43;;;;;;;;;;4819144;29;20058;-86
2022/08/09 16:17:17;;;;;;;0.77;0.30;;;;;;;;;;4828835;29;20049;-87
2022/08/09 16:19:46;;;;;;;1.27;0.40;;;;;;;;;;4832908;29;20077;-84
2022/08/09 16:22:21;;;;;;;0.73;0.40;;;;;;;;;;4829727;29;20050;-85
2022/08/09 16:25:16;;;;;;;2.05;0.50;;;;;;;;;;4821193;29;20567;-85
2022/08/09 16:37:07;;;;;;;14.73;4.33;;;;;;;;;;4515141;24;20065;-86
2022/08/09 16:39:47;;;;;;;27.88;6.75;;;;;;;;;;4833386;29;20413;-85
2022/08/09 16:42:13;;;;;;;44.85;10.90;;;;;;;;;;4826357;29;20054;-86
2022/08/09 16:44:39;;;;;;;264.55;64.65;;;;;;;;;;4798709;29;20046;-87
2022/08/09 16:47:14;;;;;;;116.63;29.65;;;;;;;;;;4803700;29;20092;-85
2022/08/09 16:49:40;;;;;;;19.05;5.07;;;;;;;;;;4821983;24;20080;-86
2022/08/09 16:52:07;;;;;;;11.05;4.75;;;;;;;;;;4815610;29;20583;-86
2022/08/09 17:04:08;;;;;;;4.22;1.10;;;;;;;;;;4817767;29;20062;-86
2022/08/09 17:06:40;;;;;;;8.55;7.72;;;;;;;;;;4799024;29;20567;-86
2022/08/09 17:09:34;;;;;;;7.80;6.15;;;;;;;;;;4808352;29;20084;-86
2022/08/09 17:12:00;;;;;;;9.75;5.93;;;;;;;;;;4810047;29;20171;-85
2022/08/09 17:14:29;;;;;;;5.50;2.92;;;;;;;;;;4813703;29;20051;-87
2022/08/09 17:17:08;;;;;;;3.05;1.98;;;;;;;;;;4806070;29;20046;-87
2022/08/09 17:22:49;;;;;;;5.03;4.40;;;;;;;;;;4843449;29;20119;-86
2022/08/09 17:28:41;;;;;;;3.63;1.95;;;;;;;;;;4822679;29;20182;-84
2022/08/09 17:34:31;;;;;;;2.28;0.80;;;;;;;;;;4776328;30;19968;-86
2022/08/09 17:36:57;;;;;;;0.57;0.40;;;;;;;;;;4791516;29;20181;-86
2022/08/09 17:39:23;;;;;;;1.13;0.77;;;;;;;;;;4810527;29;20106;-88
2022/08/09 17:58:13;;;;;;;1.10;0.50;;;;;;;;;;4829216;29;20101;-87
2022/08/09 18:00:39;;;;;;;2.15;0.47;;;;;;;;;;4817829;29;20084;-87
2022/08/09 18:03:05;;;;;;;2.60;0.50;;;;;;;;;;4820239;29;20050;-89
2022/08/09 18:05:31;;;;;;;1.83;0.60;;;;;;;;;;4808970;29;20626;-86
2022/08/09 18:07:57;;;;;;;2.47;0.60;;;;;;;;;;4813195;29;20503;-86
2022/08/09 18:40:52;;;;;;;6.32;0.80;;;;;;;;;;5147404;24;20105;-88
2022/08/09 18:43:42;;;;;;;4.32;0.80;;;;;;;;;;4808892;29;20066;-90
2022/08/09 19:17:44;;;;;;;2.67;0.80;;;;;;;;;;4967512;24;20118;-88
2022/08/09 19:20:11;;;;;;;2.20;0.80;;;;;;;;;;4796725;29;20061;-88
2022/08/09 19:31:29;;;;;;;3.28;1.45;;;;;;;;;;4808689;29;20051;-91
2022/08/09 19:46:41;;;;;;;1.92;0.93;;;;;;;;;;4772829;30;20087;-86
2022/08/09 19:49:46;;;;;;;4.47;1.15;;;;;;;;;;4787653;29;20059;-87
2022/08/09 19:52:21;;;;;;;1.45;0.80;;;;;;;;;;4753036;30;20210;-85
2022/08/09 19:58:16;;;;;;;1.75;0.90;;;;;;;;;;4756364;30;20055;-86
2022/08/09 20:04:09;;;;;;;1.40;0.80;;;;;;;;;;4887461;24;20029;-87
2022/08/09 20:06:35;;;;;;;2.28;1.00;;;;;;;;;;4811893;29;20055;-87
2022/08/09 20:09:03;;;;;;;1.15;0.90;;;;;;;;;;4806388;23;20050;-87
2022/08/09 20:15:07;;;;;;;1.33;1.00;;;;;;;;;;4827486;29;20039;-87
2022/08/09 20:17:35;;;;;;;2.47;0.85;;;;;;;;;;4840398;29;20129;-87
2022/08/09 20:20:08;;;;;;;2.15;0.90;;;;;;;;;;4829340;29;20145;-87
2022/08/09 20:38:41;;;;;;;2.78;1.27;;;19.10;99.90;;;;;;4848786;29;20137;-88
2022/08/09 20:41:07;;;;;;;1.80;1.00;;;;;;;;;;4820716;29;20144;-87
2022/08/09 20:43:53;;;;;;;1.55;1.10;;;;;;;;;;4842718;29;20038;-87
2022/08/09 20:46:19;;;;;;;1.80;1.05;;;;;;;;;;4820241;29;20050;-87
2022/08/09 20:48:49;;;;;;;1.95;1.00;;;;;;;;;;4851011;29;20486;-88
2022/08/09 20:51:21;;;;;;;2.75;1.08;;;;;;;;;;4824713;29;20082;-88
2022/08/09 20:53:47;;;;;;;1.70;1.23;;;;;;;;;;4829453;29;20083;-88
2022/08/09 20:56:28;;;;;;;2.90;1.00;;;;;;;;;;4822207;29;20053;-89
2022/08/09 20:58:58;;;;;;;1.42;1.17;;;;;;;;;;4820695;29;20052;-89
2022/08/09 21:04:46;;;;;;;6.53;1.30;;;;;;;;;;4977683;23;20098;-89
2022/08/09 21:07:12;;;;;;;4.97;1.50;;;;;;;;;;4828640;29;20065;-88
2022/08/09 21:13:10;;;;;;;4.25;1.40;;;;;;;;;;4851525;29;20053;-87
2022/08/09 21:15:36;;;;;;;4.60;1.60;;;;;;;;;;4821640;29;20084;-88
2022/08/09 21:18:03;;;;;;;3.47;1.60;;;;;;;;;;4825173;29;20121;-86
2022/08/09 21:20:47;;;;;;;4.90;1.60;;;;;;;;;;4860547;23;20137;-86
2022/08/09 21:33:44;;;;;;;2.92;1.42;;;;;;;;;;4813022;29;20103;-88
2022/08/09 21:36:11;;;;;;;4.28;1.67;;;;;;;;;;4822038;29;20089;-87
2022/08/09 21:38:38;;;;;;;2.75;1.80;;;;;;;;;;4800312;29;20063;-88
2022/08/09 21:46:57;;;;;;;4.80;2.13;;;;;;;;;;4845252;24;20108;-87
2022/08/09 21:53:14;;;;;;;3.47;2.00;;;;;;;;;;4819225;24;20054;-88
2022/08/09 21:59:13;;;;;;;5.68;2.35;;;;;;;;;;4817174;29;20494;-88
2022/08/09 22:11:15;;;;;;;6.18;2.30;;;;;;;;;;4828222;29;20062;-89
2022/08/09 22:17:49;;;;;;;4.85;2.63;;;;;;;;;;4861007;24;20123;-88
2022/08/09 22:21:24;;;;;;;3.92;2.30;;;18.00;99.90;;;;;;4826332;29;20050;-89
2022/08/09 22:23:51;;;;;;;5.53;2.63;;;;;;;;;;4819342;29;20058;-87
2022/08/09 22:29:43;;;;;;;3.88;2.22;;;;;;;;;;4839108;29;20049;-86
2022/08/09 22:32:12;;;;;;;6.13;2.70;;;;;;;;;;4830230;29;20106;-86
2022/08/09 22:38:09;;;;;;;2.92;2.47;;;;;;;;;;4829443;24;20074;-87
2022/08/09 22:40:50;;;;;;;3.17;2.70;;;;;;;;;;4770358;30;20055;-87
2022/08/09 22:49:38;;;;;;;6.32;2.72;;;;;;;;;;4855129;23;20062;-87
2022/08/09 22:52:05;;;;;;;3.90;2.67;;;;;;;;;;4815689;29;20892;-88
2022/08/09 22:54:40;;;;;;;3.33;2.85;;;;;;;;;;4826227;29;20055;-87
2022/08/09 22:57:09;;;;;;;6.55;3.40;;;;;;;;;;4821657;29;20075;-89
2022/08/09 23:10:27;;;;;;;8.45;4.10;;;18.00;99.90;;;;;;4802420;29;20051;-88
2022/08/09 23:13:12;;;;;;;5.60;3.75;;;;;;;;;;4811119;29;20061;-88
2022/08/09 23:15:44;;;;;;;7.78;3.85;;;;;;;;;;4810398;29;20084;-88
2022/08/09 23:22:19;;;;;;;;;;;;;;;;;;;;;
2022/08/09 23:51:16;;;;;;;6.13;3.40;;;;;;;;;;4868559;23;20076;-87
2022/08/09 23:53:42;;;;;;;7.43;3.72;;;;;;;;;;4816192;29;20078;-90
